sensor_id;sensor_type;location;lat;lon;timestamp;pressure;altitude;pressure_sealevel;temperature;humidity
59417;BME280;45222;52.458;20.914;2023-12-29T00:01:49;100347.10;;;3.69;84.13
59417;BME280;45222;52.458;20.914;2023-12-29T00:05:38;100345.97;;;3.64;83.83
59417;BME280;45222;52.458;20.914;2023-12-29T00:09:26;100341.20;;;3.57;83.76
59417;BME280;45222;52.458;20.914;2023-12-29T00:13:14;100337.50;;;3.48;83.99
59417;BME280;45222;52.458;20.914;2023-12-29T00:17:02;100334.92;;;3.45;83.97
59417;BME280;45222;52.458;20.914;2023-12-29T00:20:50;100333.05;;;3.42;84.44
59417;BME280;45222;52.458;20.914;2023-12-29T00:24:38;100332.08;;;3.38;84.45
59417;BME280;45222;52.458;20.914;2023-12-29T00:28:27;100334.67;;;3.31;84.32
59417;BME280;45222;52.458;20.914;2023-12-29T00:32:15;100333.06;;;3.23;84.25
59417;BME280;45222;52.458;20.914;2023-12-29T00:36:03;100327.41;;;3.15;84.36
59417;BME280;45222;52.458;20.914;2023-12-29T00:39:51;100329.95;;;3.11;84.38
59417;BME280;45222;52.458;20.914;2023-12-29T00:43:39;100327.13;;;3.11;84.54
59417;BME280;45222;52.458;20.914;2023-12-29T00:47:27;100325.90;;;3.11;84.97
59417;BME280;45222;52.458;20.914;2023-12-29T00:51:15;100327.70;;;3.10;84.72
59417;BME280;45222;52.458;20.914;2023-12-29T00:55:04;100332.17;;;3.04;84.73
59417;BME280;45222;52.458;20.914;2023-12-29T00:58:52;100335.65;;;2.97;84.66
59417;BME280;45222;52.458;20.914;2023-12-29T01:02:40;100333.12;;;2.90;84.76
59417;BME280;45222;52.458;20.914;2023-12-29T01:06:28;100333.67;;;2.89;84.89
59417;BME280;45222;52.458;20.914;2023-12-29T01:10:16;100327.70;;;2.89;85.08
59417;BME280;45222;52.458;20.914;2023-12-29T01:14:04;100331.17;;;2.91;85.42
59417;BME280;45222;52.458;20.914;2023-12-29T01:17:52;100323.25;;;2.92;85.43
59417;BME280;45222;52.458;20.914;2023-12-29T01:21:40;100326.25;;;2.91;85.24
59417;BME280;45222;52.458;20.914;2023-12-29T01:25:28;100320.53;;;2.88;85.12
59417;BME280;45222;52.458;20.914;2023-12-29T01:29:16;100312.54;;;2.82;84.96
59417;BME280;45222;52.458;20.914;2023-12-29T01:33:04;100305.02;;;2.80;85.06
59417;BME280;45222;52.458;20.914;2023-12-29T01:36:52;100291.88;;;2.79;85.18
59417;BME280;45222;52.458;20.914;2023-12-29T01:40:45;100286.80;;;2.78;85.44
59417;BME280;45222;52.458;20.914;2023-12-29T01:44:33;100283.15;;;2.76;85.34
59417;BME280;45222;52.458;20.914;2023-12-29T01:48:23;100277.77;;;2.73;85.23
59417;BME280;45222;52.458;20.914;2023-12-29T01:52:12;100274.59;;;2.63;85.17
59417;BME280;45222;52.458;20.914;2023-12-29T01:56:01;100272.11;;;2.53;84.76
59417;BME280;45222;52.458;20.914;2023-12-29T01:59:49;100261.92;;;2.44;84.80
59417;BME280;45222;52.458;20.914;2023-12-29T02:03:38;100260.60;;;2.38;85.13
59417;BME280;45222;52.458;20.914;2023-12-29T02:07:26;100253.98;;;2.36;85.22
59417;BME280;45222;52.458;20.914;2023-12-29T02:11:18;100249.66;;;2.32;85.16
59417;BME280;45222;52.458;20.914;2023-12-29T02:15:07;100243.62;;;2.26;85.16
59417;BME280;45222;52.458;20.914;2023-12-29T02:18:57;100238.91;;;2.24;85.38
59417;BME280;45222;52.458;20.914;2023-12-29T02:22:46;100239.97;;;2.24;85.51
59417;BME280;45222;52.458;20.914;2023-12-29T02:26:36;100235.25;;;2.22;85.54
59417;BME280;45222;52.458;20.914;2023-12-29T02:30:28;100229.19;;;2.18;85.53
59417;BME280;45222;52.458;20.914;2023-12-29T02:34:41;100225.91;;;2.14;85.59
59417;BME280;45222;52.458;20.914;2023-12-29T02:38:31;100221.42;;;2.10;85.58
59417;BME280;45222;52.458;20.914;2023-12-29T02:42:27;100218.61;;;2.10;85.87
59417;BME280;45222;52.458;20.914;2023-12-29T02:46:15;100218.02;;;2.13;85.80
59417;BME280;45222;52.458;20.914;2023-12-29T02:50:04;100218.60;;;2.10;85.61
59417;BME280;45222;52.458;20.914;2023-12-29T02:53:52;100213.24;;;2.06;85.44
59417;BME280;45222;52.458;20.914;2023-12-29T02:57:40;100215.52;;;1.95;85.26
59417;BME280;45222;52.458;20.914;2023-12-29T03:01:28;100210.55;;;1.86;85.09
59417;BME280;45222;52.458;20.914;2023-12-29T03:05:17;100208.89;;;1.80;85.14
59417;BME280;45222;52.458;20.914;2023-12-29T03:09:04;100207.21;;;1.75;85.38
59417;BME280;45222;52.458;20.914;2023-12-29T03:12:52;100202.77;;;1.69;85.44
59417;BME280;45222;52.458;20.914;2023-12-29T03:16:40;100202.60;;;1.67;85.70
59417;BME280;45222;52.458;20.914;2023-12-29T03:20:28;100205.09;;;1.66;85.79
59417;BME280;45222;52.458;20.914;2023-12-29T03:24:16;100197.45;;;1.60;85.86
59417;BME280;45222;52.458;20.914;2023-12-29T03:28:06;100191.88;;;1.58;85.76
59417;BME280;45222;52.458;20.914;2023-12-29T03:31:54;100191.56;;;1.55;85.87
59417;BME280;45222;52.458;20.914;2023-12-29T03:35:41;100191.73;;;1.56;86.07
59417;BME280;45222;52.458;20.914;2023-12-29T03:39:29;100188.95;;;1.53;86.22
59417;BME280;45222;52.458;20.914;2023-12-29T03:43:18;100192.93;;;1.58;86.63
59417;BME280;45222;52.458;20.914;2023-12-29T03:47:07;100197.48;;;1.58;86.47
59417;BME280;45222;52.458;20.914;2023-12-29T03:50:57;100197.00;;;1.55;86.67
59417;BME280;45222;52.458;20.914;2023-12-29T03:54:45;100195.31;;;1.51;86.74
59417;BME280;45222;52.458;20.914;2023-12-29T03:58:34;100183.92;;;1.50;87.01
59417;BME280;45222;52.458;20.914;2023-12-29T04:02:22;100179.22;;;1.48;86.79
59417;BME280;45222;52.458;20.914;2023-12-29T04:06:09;100181.52;;;1.47;86.83
59417;BME280;45222;52.458;20.914;2023-12-29T04:09:57;100171.34;;;1.48;86.80
59417;BME280;45222;52.458;20.914;2023-12-29T04:13:45;100171.19;;;1.46;86.97
59417;BME280;45222;52.458;20.914;2023-12-29T04:17:33;100168.34;;;1.49;87.10
59417;BME280;45222;52.458;20.914;2023-12-29T04:21:21;100164.83;;;1.49;87.00
59417;BME280;45222;52.458;20.914;2023-12-29T04:25:09;100160.19;;;1.43;87.16
59417;BME280;45222;52.458;20.914;2023-12-29T04:28:58;100149.58;;;1.38;87.14
59417;BME280;45222;52.458;20.914;2023-12-29T04:32:45;100145.80;;;1.31;87.03
59417;BME280;45222;52.458;20.914;2023-12-29T04:36:33;100148.73;;;1.24;86.65
59417;BME280;45222;52.458;20.914;2023-12-29T04:40:21;100149.69;;;1.17;86.93
59417;BME280;45222;52.458;20.914;2023-12-29T04:44:09;100152.61;;;1.21;87.21
59417;BME280;45222;52.458;20.914;2023-12-29T04:47:57;100149.02;;;1.27;87.53
59417;BME280;45222;52.458;20.914;2023-12-29T04:51:45;100150.64;;;1.37;88.06
59417;BME280;45222;52.458;20.914;2023-12-29T04:55:34;100147.00;;;1.46;88.14
59417;BME280;45222;52.458;20.914;2023-12-29T04:59:22;100148.99;;;1.54;88.54
59417;BME280;45222;52.458;20.914;2023-12-29T05:03:10;100140.44;;;1.63;88.50
59417;BME280;45222;52.458;20.914;2023-12-29T05:06:58;100132.40;;;1.73;88.67
59417;BME280;45222;52.458;20.914;2023-12-29T05:10:46;100135.69;;;1.86;89.10
59417;BME280;45222;52.458;20.914;2023-12-29T05:14:34;100133.67;;;2.02;89.51
59417;BME280;45222;52.458;20.914;2023-12-29T05:18:22;100132.88;;;2.18;89.49
59417;BME280;45222;52.458;20.914;2023-12-29T05:22:10;100139.69;;;2.29;89.45
59417;BME280;45222;52.458;20.914;2023-12-29T05:26:02;100131.96;;;2.39;89.43
59417;BME280;45222;52.458;20.914;2023-12-29T05:29:50;100131.63;;;2.47;89.43
59417;BME280;45222;52.458;20.914;2023-12-29T05:33:37;100127.25;;;2.56;89.37
59417;BME280;45222;52.458;20.914;2023-12-29T05:37:25;100125.70;;;2.64;89.44
59417;BME280;45222;52.458;20.914;2023-12-29T05:41:14;100120.21;;;2.75;89.42
59417;BME280;45222;52.458;20.914;2023-12-29T05:45:02;100111.04;;;2.85;89.37
59417;BME280;45222;52.458;20.914;2023-12-29T05:48:50;100108.02;;;2.95;89.00
59417;BME280;45222;52.458;20.914;2023-12-29T05:52:39;100106.79;;;3.03;89.00
59417;BME280;45222;52.458;20.914;2023-12-29T05:56:27;100105.50;;;3.14;88.77
59417;BME280;45222;52.458;20.914;2023-12-29T06:00:16;100101.46;;;3.21;88.57
59417;BME280;45222;52.458;20.914;2023-12-29T06:04:02;100096.38;;;3.29;88.20
59417;BME280;45222;52.458;20.914;2023-12-29T06:07:50;100092.32;;;3.37;88.43
59417;BME280;45222;52.458;20.914;2023-12-29T06:11:38;100093.86;;;3.47;88.22
59417;BME280;45222;52.458;20.914;2023-12-29T06:15:26;100089.25;;;3.56;88.15
59417;BME280;45222;52.458;20.914;2023-12-29T06:19:14;100088.96;;;3.60;87.78
59417;BME280;45222;52.458;20.914;2023-12-29T06:23:02;100088.55;;;3.63;87.60
59417;BME280;45222;52.458;20.914;2023-12-29T06:26:50;100084.70;;;3.69;87.46
59417;BME280;45222;52.458;20.914;2023-12-29T06:30:38;100082.59;;;3.77;87.51
59417;BME280;45222;52.458;20.914;2023-12-29T06:34:26;100081.02;;;3.83;87.34
59417;BME280;45222;52.458;20.914;2023-12-29T06:38:14;100075.63;;;3.95;86.88
59417;BME280;45222;52.458;20.914;2023-12-29T06:42:02;100075.91;;;4.04;86.77
59417;BME280;45222;52.458;20.914;2023-12-29T06:45:50;100068.05;;;4.09;86.54
59417;BME280;45222;52.458;20.914;2023-12-29T06:49:38;100072.70;;;4.12;86.30
59417;BME280;45222;52.458;20.914;2023-12-29T06:53:27;100083.86;;;4.16;85.83
59417;BME280;45222;52.458;20.914;2023-12-29T06:57:15;100073.84;;;4.23;85.61
59417;BME280;45222;52.458;20.914;2023-12-29T07:01:03;100066.40;;;4.30;85.24
59417;BME280;45222;52.458;20.914;2023-12-29T07:04:51;100059.39;;;4.36;84.85
59417;BME280;45222;52.458;20.914;2023-12-29T07:08:39;100058.91;;;4.40;84.66
59417;BME280;45222;52.458;20.914;2023-12-29T07:12:27;100057.86;;;4.47;84.52
59417;BME280;45222;52.458;20.914;2023-12-29T07:16:15;100049.98;;;4.51;84.31
59417;BME280;45222;52.458;20.914;2023-12-29T07:20:08;100040.08;;;4.53;84.14
59417;BME280;45222;52.458;20.914;2023-12-29T07:23:56;100040.89;;;4.55;84.06
59417;BME280;45222;52.458;20.914;2023-12-29T07:27:44;100040.12;;;4.57;83.85
59417;BME280;45222;52.458;20.914;2023-12-29T07:31:32;100040.05;;;4.60;83.82
59417;BME280;45222;52.458;20.914;2023-12-29T07:35:21;100037.44;;;4.64;83.33
59417;BME280;45222;52.458;20.914;2023-12-29T07:39:09;100046.63;;;4.70;83.28
59417;BME280;45222;52.458;20.914;2023-12-29T07:42:57;100042.70;;;4.77;82.99
59417;BME280;45222;52.458;20.914;2023-12-29T07:46:45;100035.30;;;4.84;82.46
59417;BME280;45222;52.458;20.914;2023-12-29T07:50:33;100041.42;;;4.90;82.21
59417;BME280;45222;52.458;20.914;2023-12-29T07:54:21;100035.89;;;4.99;82.40
59417;BME280;45222;52.458;20.914;2023-12-29T07:58:09;100033.94;;;5.05;81.82
59417;BME280;45222;52.458;20.914;2023-12-29T08:01:58;100026.55;;;5.10;81.85
59417;BME280;45222;52.458;20.914;2023-12-29T08:05:45;100019.85;;;5.16;81.60
59417;BME280;45222;52.458;20.914;2023-12-29T08:09:33;100016.56;;;5.20;81.37
59417;BME280;45222;52.458;20.914;2023-12-29T08:13:21;100017.75;;;5.21;81.16
59417;BME280;45222;52.458;20.914;2023-12-29T08:17:09;100012.29;;;5.26;80.90
59417;BME280;45222;52.458;20.914;2023-12-29T08:20:57;100012.48;;;5.31;80.91
59417;BME280;45222;52.458;20.914;2023-12-29T08:24:46;100007.88;;;5.37;80.55
59417;BME280;45222;52.458;20.914;2023-12-29T08:28:34;100004.05;;;5.42;80.24
59417;BME280;45222;52.458;20.914;2023-12-29T08:32:22;100017.18;;;5.49;80.49
59417;BME280;45222;52.458;20.914;2023-12-29T08:36:10;100018.27;;;5.59;80.11
59417;BME280;45222;52.458;20.914;2023-12-29T08:39:59;100018.32;;;5.68;79.68
59417;BME280;45222;52.458;20.914;2023-12-29T08:43:47;100017.70;;;5.76;79.66
59417;BME280;45222;52.458;20.914;2023-12-29T08:47:35;100018.20;;;5.87;79.39
59417;BME280;45222;52.458;20.914;2023-12-29T08:51:23;100017.72;;;5.96;78.92
59417;BME280;45222;52.458;20.914;2023-12-29T08:55:12;100010.92;;;6.05;78.70
59417;BME280;45222;52.458;20.914;2023-12-29T08:59:00;100003.54;;;6.13;78.61
59417;BME280;45222;52.458;20.914;2023-12-29T09:02:48;100000.98;;;6.21;78.16
59417;BME280;45222;52.458;20.914;2023-12-29T09:06:36;100001.45;;;6.27;77.53
59417;BME280;45222;52.458;20.914;2023-12-29T09:10:24;99993.57;;;6.36;77.42
59417;BME280;45222;52.458;20.914;2023-12-29T09:14:12;99998.14;;;6.45;77.09
59417;BME280;45222;52.458;20.914;2023-12-29T09:18:00;99995.78;;;6.52;76.52
59417;BME280;45222;52.458;20.914;2023-12-29T09:21:48;99997.86;;;6.58;76.49
59417;BME280;45222;52.458;20.914;2023-12-29T09:25:36;99994.02;;;6.66;76.29
59417;BME280;45222;52.458;20.914;2023-12-29T09:29:23;99991.61;;;6.73;76.29
59417;BME280;45222;52.458;20.914;2023-12-29T09:33:11;99984.01;;;6.78;75.63
59417;BME280;45222;52.458;20.914;2023-12-29T09:36:59;99987.32;;;6.84;75.72
59417;BME280;45222;52.458;20.914;2023-12-29T09:40:48;99987.52;;;6.92;75.83
59417;BME280;45222;52.458;20.914;2023-12-29T09:44:35;99987.95;;;6.99;75.13
59417;BME280;45222;52.458;20.914;2023-12-29T09:48:25;99982.96;;;7.05;74.98
59417;BME280;45222;52.458;20.914;2023-12-29T09:52:14;99983.24;;;7.15;74.93
59417;BME280;45222;52.458;20.914;2023-12-29T09:56:07;99974.11;;;7.22;74.46
59417;BME280;45222;52.458;20.914;2023-12-29T09:59:55;99973.17;;;7.28;73.96
59417;BME280;45222;52.458;20.914;2023-12-29T10:03:44;99971.08;;;7.32;73.73
59417;BME280;45222;52.458;20.914;2023-12-29T10:07:35;99972.22;;;7.34;73.61
59417;BME280;45222;52.458;20.914;2023-12-29T10:11:24;99972.33;;;7.36;73.35
59417;BME280;45222;52.458;20.914;2023-12-29T10:15:19;99973.20;;;7.36;73.42
59417;BME280;45222;52.458;20.914;2023-12-29T10:19:14;99968.64;;;7.35;73.62
59417;BME280;45222;52.458;20.914;2023-12-29T10:23:10;99967.70;;;7.32;73.65
59417;BME280;45222;52.458;20.914;2023-12-29T10:26:59;99962.48;;;7.30;73.82
59417;BME280;45222;52.458;20.914;2023-12-29T10:30:49;99968.30;;;7.30;73.92
59417;BME280;45222;52.458;20.914;2023-12-29T10:34:37;99970.17;;;7.36;73.96
59417;BME280;45222;52.458;20.914;2023-12-29T10:38:24;99966.88;;;7.43;73.93
59417;BME280;45222;52.458;20.914;2023-12-29T10:42:12;99971.55;;;7.50;73.83
59417;BME280;45222;52.458;20.914;2023-12-29T10:46:09;99972.34;;;7.57;73.61
59417;BME280;45222;52.458;20.914;2023-12-29T10:50:01;99967.04;;;7.65;73.65
59417;BME280;45222;52.458;20.914;2023-12-29T10:53:55;99962.57;;;7.70;73.50
59417;BME280;45222;52.458;20.914;2023-12-29T10:57:44;99961.44;;;7.72;73.47
59417;BME280;45222;52.458;20.914;2023-12-29T11:01:33;99959.52;;;7.75;73.84
59417;BME280;45222;52.458;20.914;2023-12-29T11:05:26;99959.38;;;7.78;74.02
59417;BME280;45222;52.458;20.914;2023-12-29T11:09:14;99960.83;;;7.73;73.94
59417;BME280;45222;52.458;20.914;2023-12-29T11:13:15;99953.04;;;7.69;74.32
59417;BME280;45222;52.458;20.914;2023-12-29T11:17:04;99948.96;;;7.65;74.48
59417;BME280;45222;52.458;20.914;2023-12-29T11:20:54;99947.96;;;7.64;74.67
59417;BME280;45222;52.458;20.914;2023-12-29T11:24:43;99940.77;;;7.62;74.68
59417;BME280;45222;52.458;20.914;2023-12-29T11:28:33;99934.98;;;7.61;74.73
59417;BME280;45222;52.458;20.914;2023-12-29T11:32:27;99929.95;;;7.63;74.93
59417;BME280;45222;52.458;20.914;2023-12-29T11:36:18;99926.04;;;7.68;75.08
59417;BME280;45222;52.458;20.914;2023-12-29T11:40:17;99925.02;;;7.71;75.34
59417;BME280;45222;52.458;20.914;2023-12-29T11:44:06;99903.70;;;7.72;75.46
59417;BME280;45222;52.458;20.914;2023-12-29T11:47:54;99890.90;;;7.77;75.37
59417;BME280;45222;52.458;20.914;2023-12-29T11:51:44;99894.86;;;7.84;75.58
59417;BME280;45222;52.458;20.914;2023-12-29T11:55:37;99903.84;;;7.89;75.29
59417;BME280;45222;52.458;20.914;2023-12-29T11:59:26;99902.59;;;7.94;74.97
59417;BME280;45222;52.458;20.914;2023-12-29T12:03:17;99893.24;;;8.00;74.79
59417;BME280;45222;52.458;20.914;2023-12-29T12:07:07;99893.61;;;8.08;74.30
59417;BME280;45222;52.458;20.914;2023-12-29T12:10:55;99894.11;;;8.17;73.84
59417;BME280;45222;52.458;20.914;2023-12-29T12:14:54;99901.31;;;8.22;73.83
59417;BME280;45222;52.458;20.914;2023-12-29T12:18:42;99901.05;;;8.27;73.56
59417;BME280;45222;52.458;20.914;2023-12-29T12:22:31;99901.30;;;8.34;73.41
59417;BME280;45222;52.458;20.914;2023-12-29T12:26:21;99902.29;;;8.39;73.01
59417;BME280;45222;52.458;20.914;2023-12-29T12:30:12;99909.20;;;8.43;72.47
59417;BME280;45222;52.458;20.914;2023-12-29T12:34:05;99909.98;;;8.45;72.10
59417;BME280;45222;52.458;20.914;2023-12-29T12:38:08;99911.17;;;8.46;71.90
59417;BME280;45222;52.458;20.914;2023-12-29T12:41:56;99907.13;;;8.45;71.47
59417;BME280;45222;52.458;20.914;2023-12-29T12:45:52;99899.48;;;8.46;71.13
59417;BME280;45222;52.458;20.914;2023-12-29T12:49:40;99902.45;;;8.51;71.43
59417;BME280;45222;52.458;20.914;2023-12-29T12:53:32;99895.45;;;8.53;71.12
59417;BME280;45222;52.458;20.914;2023-12-29T12:57:23;99890.86;;;8.53;71.21
59417;BME280;45222;52.458;20.914;2023-12-29T13:01:11;99897.19;;;8.50;71.05
59417;BME280;45222;52.458;20.914;2023-12-29T13:05:00;99886.11;;;8.48;71.10
59417;BME280;45222;52.458;20.914;2023-12-29T13:08:52;99881.92;;;8.50;71.28
59417;BME280;45222;52.458;20.914;2023-12-29T13:12:40;99885.60;;;8.51;71.04
59417;BME280;45222;52.458;20.914;2023-12-29T13:16:32;99883.90;;;8.49;71.01
59417;BME280;45222;52.458;20.914;2023-12-29T13:20:20;99886.38;;;8.46;70.85
59417;BME280;45222;52.458;20.914;2023-12-29T13:24:09;99890.07;;;8.43;71.09
59417;BME280;45222;52.458;20.914;2023-12-29T13:27:57;99895.33;;;8.40;71.05
59417;BME280;45222;52.458;20.914;2023-12-29T13:31:46;99897.22;;;8.37;71.19
59417;BME280;45222;52.458;20.914;2023-12-29T13:35:36;99909.48;;;8.33;71.20
59417;BME280;45222;52.458;20.914;2023-12-29T13:39:30;99906.41;;;8.30;71.39
59417;BME280;45222;52.458;20.914;2023-12-29T13:43:24;99906.04;;;8.31;71.52
59417;BME280;45222;52.458;20.914;2023-12-29T13:47:13;99910.02;;;8.29;71.47
59417;BME280;45222;52.458;20.914;2023-12-29T13:51:02;99904.05;;;8.28;71.54
59417;BME280;45222;52.458;20.914;2023-12-29T13:54:51;99896.88;;;8.26;71.47
59417;BME280;45222;52.458;20.914;2023-12-29T13:58:38;99907.84;;;8.26;71.76
59417;BME280;45222;52.458;20.914;2023-12-29T14:02:31;99913.67;;;8.27;71.69
59417;BME280;45222;52.458;20.914;2023-12-29T14:06:29;99913.83;;;8.27;71.47
59417;BME280;45222;52.458;20.914;2023-12-29T14:10:17;99913.81;;;8.27;71.42
59417;BME280;45222;52.458;20.914;2023-12-29T14:14:05;99913.98;;;8.31;71.61
59417;BME280;45222;52.458;20.914;2023-12-29T14:17:58;99919.75;;;8.33;71.35
59417;BME280;45222;52.458;20.914;2023-12-29T14:21:48;99932.82;;;8.34;71.43
59417;BME280;45222;52.458;20.914;2023-12-29T14:25:37;99932.44;;;8.35;71.22
59417;BME280;45222;52.458;20.914;2023-12-29T14:29:26;99930.98;;;8.36;71.59
59417;BME280;45222;52.458;20.914;2023-12-29T14:33:13;99930.30;;;8.35;71.42
59417;BME280;45222;52.458;20.914;2023-12-29T14:37:02;99931.23;;;8.34;71.55
59417;BME280;45222;52.458;20.914;2023-12-29T14:40:50;99922.86;;;8.31;71.52
59417;BME280;45222;52.458;20.914;2023-12-29T14:44:38;99920.28;;;8.29;71.41
59417;BME280;45222;52.458;20.914;2023-12-29T14:48:26;99925.67;;;8.31;71.68
59417;BME280;45222;52.458;20.914;2023-12-29T14:52:14;99917.89;;;8.31;71.82
59417;BME280;45222;52.458;20.914;2023-12-29T14:56:02;99916.90;;;8.29;71.41
59417;BME280;45222;52.458;20.914;2023-12-29T14:59:50;99920.67;;;8.32;71.12
59417;BME280;45222;52.458;20.914;2023-12-29T15:03:38;99935.55;;;8.36;71.21
59417;BME280;45222;52.458;20.914;2023-12-29T15:07:27;99953.19;;;8.38;71.16
59417;BME280;45222;52.458;20.914;2023-12-29T15:11:17;99934.21;;;8.39;70.89
59417;BME280;45222;52.458;20.914;2023-12-29T15:15:06;99931.41;;;8.38;71.01
59417;BME280;45222;52.458;20.914;2023-12-29T15:18:53;99932.36;;;8.33;71.00
59417;BME280;45222;52.458;20.914;2023-12-29T15:22:40;99933.55;;;8.26;71.11
59417;BME280;45222;52.458;20.914;2023-12-29T15:26:32;99927.55;;;8.21;71.38
59417;BME280;45222;52.458;20.914;2023-12-29T15:30:20;99924.60;;;8.16;71.32
59417;BME280;45222;52.458;20.914;2023-12-29T15:34:07;99921.09;;;8.12;71.47
59417;BME280;45222;52.458;20.914;2023-12-29T15:37:56;99920.45;;;8.06;71.63
59417;BME280;45222;52.458;20.914;2023-12-29T15:41:56;99920.40;;;8.03;71.95
59417;BME280;45222;52.458;20.914;2023-12-29T15:45:44;99927.23;;;8.01;72.02
59417;BME280;45222;52.458;20.914;2023-12-29T15:49:31;99929.84;;;7.98;72.03
59417;BME280;45222;52.458;20.914;2023-12-29T15:53:19;99917.21;;;7.91;72.12
59417;BME280;45222;52.458;20.914;2023-12-29T15:57:07;99907.77;;;7.85;72.30
59417;BME280;45222;52.458;20.914;2023-12-29T16:00:55;99907.54;;;7.78;72.37
59417;BME280;45222;52.458;20.914;2023-12-29T16:04:43;99912.37;;;7.76;72.63
59417;BME280;45222;52.458;20.914;2023-12-29T16:08:31;99907.89;;;7.74;72.85
59417;BME280;45222;52.458;20.914;2023-12-29T16:12:19;99912.73;;;7.72;72.87
59417;BME280;45222;52.458;20.914;2023-12-29T16:16:07;99911.77;;;7.70;72.83
59417;BME280;45222;52.458;20.914;2023-12-29T16:19:55;99908.52;;;7.67;72.89
59417;BME280;45222;52.458;20.914;2023-12-29T16:23:43;99913.25;;;7.69;73.07
59417;BME280;45222;52.458;20.914;2023-12-29T16:27:31;99918.11;;;7.71;73.13
59417;BME280;45222;52.458;20.914;2023-12-29T16:31:19;99913.26;;;7.73;73.09
59417;BME280;45222;52.458;20.914;2023-12-29T16:35:08;99911.59;;;7.74;73.00
59417;BME280;45222;52.458;20.914;2023-12-29T16:38:56;99909.13;;;7.74;72.84
59417;BME280;45222;52.458;20.914;2023-12-29T16:42:44;99901.45;;;7.75;73.03
59417;BME280;45222;52.458;20.914;2023-12-29T16:46:34;99901.45;;;7.79;72.92
59417;BME280;45222;52.458;20.914;2023-12-29T16:50:22;99905.60;;;7.82;72.79
59417;BME280;45222;52.458;20.914;2023-12-29T16:54:10;99906.29;;;7.82;72.80
59417;BME280;45222;52.458;20.914;2023-12-29T16:57:58;99904.70;;;7.82;72.78
59417;BME280;45222;52.458;20.914;2023-12-29T17:01:46;99901.23;;;7.84;72.87
59417;BME280;45222;52.458;20.914;2023-12-29T17:05:34;99905.71;;;7.87;72.94
59417;BME280;45222;52.458;20.914;2023-12-29T17:09:22;99902.81;;;7.88;72.82
59417;BME280;45222;52.458;20.914;2023-12-29T17:13:10;99901.77;;;7.88;72.82
59417;BME280;45222;52.458;20.914;2023-12-29T17:16:58;99896.33;;;7.87;72.86
59417;BME280;45222;52.458;20.914;2023-12-29T17:20:47;99896.92;;;7.85;72.95
59417;BME280;45222;52.458;20.914;2023-12-29T17:24:36;99897.45;;;7.86;73.12
59417;BME280;45222;52.458;20.914;2023-12-29T17:28:25;99896.31;;;7.84;72.97
59417;BME280;45222;52.458;20.914;2023-12-29T17:32:13;99893.34;;;7.83;73.01
59417;BME280;45222;52.458;20.914;2023-12-29T17:36:01;99892.55;;;7.80;73.02
59417;BME280;45222;52.458;20.914;2023-12-29T17:39:49;99899.77;;;7.81;73.16
59417;BME280;45222;52.458;20.914;2023-12-29T17:43:37;99890.04;;;7.81;73.17
59417;BME280;45222;52.458;20.914;2023-12-29T17:47:25;99890.22;;;7.81;73.04
59417;BME280;45222;52.458;20.914;2023-12-29T17:51:20;99894.63;;;7.81;73.18
59417;BME280;45222;52.458;20.914;2023-12-29T17:55:09;99890.61;;;7.84;73.35
59417;BME280;45222;52.458;20.914;2023-12-29T17:58:57;99889.81;;;7.86;73.19
59417;BME280;45222;52.458;20.914;2023-12-29T18:02:45;99885.38;;;7.87;73.03
59417;BME280;45222;52.458;20.914;2023-12-29T18:06:33;99886.83;;;7.86;72.94
59417;BME280;45222;52.458;20.914;2023-12-29T18:10:21;99885.50;;;7.88;73.12
59417;BME280;45222;52.458;20.914;2023-12-29T18:14:09;99881.29;;;7.87;73.11
59417;BME280;45222;52.458;20.914;2023-12-29T18:17:58;99888.91;;;7.86;72.98
59417;BME280;45222;52.458;20.914;2023-12-29T18:21:47;99888.80;;;7.85;73.05
59417;BME280;45222;52.458;20.914;2023-12-29T18:25:35;99889.63;;;7.87;73.12
59417;BME280;45222;52.458;20.914;2023-12-29T18:29:23;99890.44;;;7.88;73.12
59417;BME280;45222;52.458;20.914;2023-12-29T18:33:12;99887.42;;;7.88;73.11
59417;BME280;45222;52.458;20.914;2023-12-29T18:37:00;99879.64;;;7.88;72.99
59417;BME280;45222;52.458;20.914;2023-12-29T18:40:48;99888.66;;;7.92;73.15
59417;BME280;45222;52.458;20.914;2023-12-29T18:44:38;99887.59;;;7.96;72.80
59417;BME280;45222;52.458;20.914;2023-12-29T18:48:27;99886.26;;;7.98;72.78
59417;BME280;45222;52.458;20.914;2023-12-29T18:52:15;99883.61;;;7.98;72.84
59417;BME280;45222;52.458;20.914;2023-12-29T18:56:06;99884.52;;;7.98;72.82
59417;BME280;45222;52.458;20.914;2023-12-29T18:59:55;99884.41;;;8.00;72.89
59417;BME280;45222;52.458;20.914;2023-12-29T19:03:43;99877.88;;;8.00;72.86
59417;BME280;45222;52.458;20.914;2023-12-29T19:07:31;99875.34;;;7.97;72.85
59417;BME280;45222;52.458;20.914;2023-12-29T19:11:21;99870.81;;;7.95;72.91
59417;BME280;45222;52.458;20.914;2023-12-29T19:15:10;99871.10;;;7.97;73.05
59417;BME280;45222;52.458;20.914;2023-12-29T19:18:58;99869.57;;;7.99;73.08
59417;BME280;45222;52.458;20.914;2023-12-29T19:22:47;99870.33;;;8.02;73.00
59417;BME280;45222;52.458;20.914;2023-12-29T19:26:35;99865.44;;;8.01;73.01
59417;BME280;45222;52.458;20.914;2023-12-29T19:30:23;99860.23;;;7.98;73.04
59417;BME280;45222;52.458;20.914;2023-12-29T19:34:12;99858.77;;;7.96;73.02
59417;BME280;45222;52.458;20.914;2023-12-29T19:38:00;99849.56;;;7.96;73.39
59417;BME280;45222;52.458;20.914;2023-12-29T19:41:49;99841.52;;;7.97;73.52
59417;BME280;45222;52.458;20.914;2023-12-29T19:45:38;99842.25;;;7.97;73.66
59417;BME280;45222;52.458;20.914;2023-12-29T19:49:26;99845.20;;;7.94;73.70
59417;BME280;45222;52.458;20.914;2023-12-29T19:53:19;99843.64;;;7.90;73.64
59417;BME280;45222;52.458;20.914;2023-12-29T19:57:07;99847.77;;;7.88;73.80
59417;BME280;45222;52.458;20.914;2023-12-29T20:00:55;99851.39;;;7.86;74.02
59417;BME280;45222;52.458;20.914;2023-12-29T20:04:44;99852.30;;;7.82;73.95